TAF KECP
KECP 072331Z 0800/0824 VRB03KT P6SM VCSH OVC008 FM080300 00000KT 3SM BR VCSH OVC005 FM080600 00000KT 1SM -SHRA BR OVC003 FM081000 21004KT 4SM SHRA BR SCT005 OVC010 FM081500 28006KT P6SM BKN015=
METAR KECP
WC KECP
WS KECP
WV KECP